createdAt,value
2017-11-05T00:00:48.821Z,0
2017-11-05T00:01:57.699Z,0
2017-11-05T00:03:06.920Z,0
2017-11-05T00:04:15.464Z,0
2017-11-05T00:05:24.008Z,0
2017-11-05T00:06:33.560Z,0
2017-11-05T00:07:42.104Z,0
2017-11-05T00:08:50.982Z,0
2017-11-05T00:09:59.860Z,0
2017-11-05T00:11:09.082Z,0
2017-11-05T00:12:17.963Z,0
2017-11-05T00:13:26.508Z,0
2017-11-05T00:14:35.725Z,0
2017-11-05T00:15:44.599Z,0
2017-11-05T00:16:53.478Z,0
2017-11-05T00:18:02.353Z,0
2017-11-05T00:19:11.236Z,0
2017-11-05T00:20:20.116Z,0
2017-11-05T00:21:28.661Z,0
2017-11-05T00:22:38.560Z,0
2017-11-05T00:23:47.783Z,0
2017-11-05T00:24:56.662Z,0
2017-11-05T00:26:05.209Z,0
2017-11-05T00:27:13.745Z,0
2017-11-05T00:28:22.287Z,0
2017-11-05T00:29:31.504Z,0
2017-11-05T00:30:40.050Z,0
2017-11-05T00:31:49.603Z,0
2017-11-05T00:32:59.156Z,0
2017-11-05T00:34:07.700Z,0
2017-11-05T00:35:16.915Z,0
2017-11-05T00:36:25.464Z,0
2017-11-05T00:37:35.028Z,0
2017-11-05T00:38:43.906Z,0
2017-11-05T00:39:52.451Z,0
2017-11-05T00:41:01.324Z,0
2017-11-05T00:42:10.206Z,0
2017-11-05T00:43:18.743Z,0
2017-11-05T00:44:27.335Z,0
2017-11-05T00:45:36.555Z,0
2017-11-05T00:46:45.432Z,0
2017-11-05T00:47:54.312Z,0
2017-11-05T00:49:03.191Z,0
2017-11-05T00:50:12.459Z,0
2017-11-05T00:51:21.003Z,0
2017-11-05T00:52:29.881Z,0
2017-11-05T00:53:38.759Z,0
2017-11-05T00:54:47.301Z,0
2017-11-05T00:55:55.842Z,0
2017-11-05T00:57:04.380Z,0
2017-11-05T00:58:13.263Z,0
2017-11-05T00:59:22.812Z,0
2017-11-05T01:00:31.686Z,0
2017-11-05T01:01:40.228Z,0
2017-11-05T01:02:48.770Z,0
2017-11-05T01:03:57.308Z,0
2017-11-05T01:05:06.189Z,0
2017-11-05T01:06:14.728Z,0
2017-11-05T01:07:23.602Z,0
2017-11-05T01:08:32.482Z,0
2017-11-05T01:09:41.021Z,0
2017-11-05T01:10:50.234Z,0
2017-11-05T01:11:58.775Z,0
2017-11-05T01:13:07.366Z,0
2017-11-05T01:14:15.905Z,0
2017-11-05T01:15:24.784Z,0
2017-11-05T01:16:33.329Z,0
2017-11-05T01:17:41.871Z,0
2017-11-05T01:18:50.753Z,0
2017-11-05T01:19:59.630Z,0
2017-11-05T01:21:08.177Z,0
2017-11-05T01:22:17.395Z,0
2017-11-05T01:23:26.604Z,0
2017-11-05T01:24:35.145Z,0
2017-11-05T01:25:44.023Z,0
2017-11-05T01:26:53.242Z,0
2017-11-05T01:28:01.799Z,0
2017-11-05T01:29:10.690Z,0
2017-11-05T01:30:19.562Z,0
2017-11-05T01:31:28.452Z,0
2017-11-05T01:32:37.673Z,0
2017-11-05T01:33:46.550Z,0
2017-11-05T01:34:55.090Z,0
2017-11-05T01:36:03.976Z,0
2017-11-05T01:37:13.189Z,0
2017-11-05T01:38:21.732Z,0
2017-11-05T01:39:30.626Z,0
2017-11-05T01:40:39.150Z,0
2017-11-05T01:41:47.692Z,0
2017-11-05T01:42:56.233Z,0
2017-11-05T01:44:05.112Z,0
2017-11-05T01:45:13.657Z,0
2017-11-05T01:46:22.534Z,0
2017-11-05T01:47:31.749Z,0
2017-11-05T01:48:40.293Z,0
2017-11-05T01:49:49.178Z,0
2017-11-05T01:50:58.388Z,0
2017-11-05T01:52:07.267Z,0
2017-11-05T01:53:15.808Z,0
2017-11-05T01:54:24.356Z,0
2017-11-05T01:55:32.893Z,0
2017-11-05T01:56:42.114Z,0
2017-11-05T01:57:51.325Z,0
2017-11-05T01:59:00.212Z,0
2017-11-05T02:00:08.753Z,0
2017-11-05T02:01:17.633Z,0
2017-11-05T02:02:26.847Z,0
2017-11-05T02:03:35.734Z,0
2017-11-05T02:04:44.609Z,0
2017-11-05T02:05:53.898Z,0
2017-11-05T02:07:02.776Z,0
2017-11-05T02:08:11.652Z,0
2017-11-05T02:09:20.530Z,0
2017-11-05T02:10:29.748Z,0
2017-11-05T02:11:38.969Z,0
2017-11-05T02:12:47.847Z,0
2017-11-05T02:13:56.386Z,0
2017-11-05T02:15:05.263Z,0
2017-11-05T02:16:14.142Z,0
2017-11-05T02:17:23.019Z,0
2017-11-05T02:18:31.897Z,0
2017-11-05T02:19:40.773Z,0
2017-11-05T02:20:50.014Z,0
2017-11-05T02:21:58.895Z,0
2017-11-05T02:23:07.439Z,0
2017-11-05T02:24:15.979Z,0
2017-11-05T02:25:24.518Z,0
2017-11-05T02:26:33.513Z,0
2017-11-05T02:27:42.383Z,0
2017-11-05T02:28:50.923Z,0
2017-11-05T02:30:00.147Z,0
2017-11-05T02:31:09.366Z,0
2017-11-05T02:32:17.904Z,0
2017-11-05T02:33:27.126Z,0
2017-11-05T02:34:36.673Z,0
2017-11-05T02:35:45.213Z,0
2017-11-05T02:36:53.755Z,0
2017-11-05T02:38:02.972Z,0
2017-11-05T02:39:12.198Z,0
2017-11-05T02:40:21.412Z,0
2017-11-05T02:41:29.949Z,0
2017-11-05T02:42:39.160Z,0
2017-11-05T02:43:48.038Z,0
2017-11-05T02:44:57.254Z,0
2017-11-05T02:46:06.471Z,0
2017-11-05T02:47:15.348Z,0
2017-11-05T02:48:23.892Z,0
2017-11-05T02:49:32.772Z,0
2017-11-05T02:50:41.985Z,0
2017-11-05T02:51:51.195Z,0
2017-11-05T02:53:00.078Z,0
2017-11-05T02:54:09.403Z,0
2017-11-05T02:55:18.038Z,0
2017-11-05T02:56:26.915Z,0
2017-11-05T02:57:36.138Z,0
2017-11-05T02:58:45.268Z,0
2017-11-05T02:59:54.484Z,0
2017-11-05T03:01:03.706Z,0
2017-11-05T03:02:12.584Z,0
2017-11-05T03:03:21.123Z,0
2017-11-05T03:04:29.994Z,0
2017-11-05T03:05:39.204Z,0
2017-11-05T03:06:48.081Z,0
2017-11-05T03:07:56.622Z,0
2017-11-05T03:09:05.501Z,0
2017-11-05T03:10:14.043Z,0
2017-11-05T03:11:22.583Z,0
2017-11-05T03:12:31.802Z,0
2017-11-05T03:13:40.336Z,0
2017-11-05T03:14:49.224Z,0
2017-11-05T03:15:57.771Z,0
2017-11-05T03:17:06.646Z,0
2017-11-05T03:18:15.860Z,0
2017-11-05T03:19:25.075Z,0
2017-11-05T03:20:34.298Z,0
2017-11-05T03:21:43.177Z,0
2017-11-05T03:22:52.049Z,0
2017-11-05T03:24:01.263Z,0
2017-11-05T03:25:10.475Z,0
2017-11-05T03:26:19.354Z,0
2017-11-05T03:27:28.233Z,0
2017-11-05T03:28:36.772Z,0
2017-11-05T03:29:45.314Z,0
2017-11-05T03:30:53.874Z,0
2017-11-05T03:32:03.094Z,0
2017-11-05T03:33:11.635Z,0
2017-11-05T03:34:20.511Z,0
2017-11-05T03:35:29.053Z,0
2017-11-05T03:36:37.594Z,0
2017-11-05T03:37:46.137Z,0
2017-11-05T03:38:54.678Z,0
2017-11-05T03:40:03.892Z,0
2017-11-05T03:41:13.119Z,0
2017-11-05T03:42:22.004Z,0
2017-11-05T03:43:31.220Z,0
2017-11-05T03:44:39.762Z,0
2017-11-05T03:45:48.304Z,0
2017-11-05T03:46:57.514Z,0
2017-11-05T03:48:06.058Z,0
2017-11-05T03:49:14.986Z,0
2017-11-05T03:50:24.200Z,0
2017-11-05T03:51:33.076Z,0
2017-11-05T03:52:41.952Z,0
2017-11-05T03:53:50.503Z,0
2017-11-05T03:54:59.380Z,0
2017-11-05T03:56:08.259Z,0
2017-11-05T03:57:17.470Z,0
2017-11-05T03:58:26.346Z,0
2017-11-05T03:59:35.903Z,0
2017-11-05T04:00:44.781Z,0
2017-11-05T04:01:53.993Z,0
2017-11-05T04:03:02.869Z,0
2017-11-05T04:04:12.082Z,0
2017-11-05T04:05:21.297Z,0
2017-11-05T04:06:30.537Z,0
2017-11-05T04:07:39.078Z,0
2017-11-05T04:08:47.963Z,0
2017-11-05T04:09:57.509Z,0
2017-11-05T04:11:06.386Z,0
2017-11-05T04:12:14.929Z,0
2017-11-05T04:13:24.143Z,0
2017-11-05T04:14:32.686Z,0
2017-11-05T04:15:41.565Z,0
2017-11-05T04:16:50.107Z,0
2017-11-05T04:17:58.647Z,0
2017-11-05T04:19:07.532Z,0
2017-11-05T04:20:16.742Z,0
2017-11-05T04:21:25.282Z,0
2017-11-05T04:22:33.826Z,0
2017-11-05T04:23:42.365Z,0
2017-11-05T04:24:50.903Z,0
2017-11-05T04:25:59.782Z,0
2017-11-05T04:27:08.658Z,0
2017-11-05T04:28:17.202Z,0
2017-11-05T04:29:25.744Z,0
2017-11-05T04:30:34.282Z,0
2017-11-05T04:31:43.155Z,0
2017-11-05T04:32:51.696Z,0
2017-11-05T04:34:00.234Z,0
2017-11-05T04:35:09.445Z,0
2017-11-05T04:36:17.987Z,0
2017-11-05T04:37:27.533Z,0
2017-11-05T04:38:36.416Z,0
2017-11-05T04:39:45.632Z,0
2017-11-05T04:40:54.510Z,0
2017-11-05T04:42:03.392Z,0
2017-11-05T04:43:11.934Z,0
2017-11-05T04:44:20.473Z,0
2017-11-05T04:45:29.346Z,0
2017-11-05T04:46:38.228Z,0
2017-11-05T04:47:46.767Z,0
2017-11-05T04:48:55.979Z,0
2017-11-05T04:50:05.199Z,0
2017-11-05T04:51:13.738Z,0
2017-11-05T04:52:22.640Z,0
2017-11-05T04:53:31.184Z,0
2017-11-05T04:54:40.400Z,0
2017-11-05T04:55:48.936Z,0
2017-11-05T04:56:57.482Z,0
2017-11-05T04:58:06.381Z,0
2017-11-05T04:59:15.257Z,0
2017-11-05T05:00:24.466Z,0
2017-11-05T05:01:33.341Z,0
2017-11-05T05:02:42.234Z,0
2017-11-05T05:03:51.445Z,0
2017-11-05T05:04:59.987Z,0
2017-11-05T05:06:08.527Z,0
2017-11-05T05:07:17.405Z,0
2017-11-05T05:08:25.993Z,0
2017-11-05T05:09:34.533Z,0
2017-11-05T05:10:43.757Z,0
2017-11-05T05:11:52.294Z,0
2017-11-05T05:13:01.169Z,0
2017-11-05T05:14:10.383Z,0
2017-11-05T05:15:19.264Z,0
2017-11-05T05:16:28.141Z,0
2017-11-05T05:17:36.680Z,0
2017-11-05T05:18:45.895Z,0
2017-11-05T05:19:55.448Z,0
2017-11-05T05:21:04.999Z,0
2017-11-05T05:22:13.542Z,0
2017-11-05T05:23:22.422Z,0
2017-11-05T05:24:30.960Z,0
2017-11-05T05:25:39.887Z,0
2017-11-05T05:26:48.426Z,0
2017-11-05T05:27:56.965Z,0
2017-11-05T05:29:05.838Z,0
2017-11-05T05:30:14.720Z,0
2017-11-05T05:31:23.259Z,0
2017-11-05T05:32:32.805Z,0
2017-11-05T05:33:41.342Z,0
2017-11-05T05:34:49.886Z,0
2017-11-05T05:35:58.763Z,0
2017-11-05T05:37:07.302Z,0
2017-11-05T05:38:16.523Z,0
2017-11-05T05:39:25.064Z,0
2017-11-05T05:40:33.604Z,0
2017-11-05T05:41:42.824Z,0
2017-11-05T05:42:51.416Z,0
2017-11-05T05:43:59.952Z,0
2017-11-05T05:45:08.827Z,0
2017-11-05T05:46:17.369Z,0
2017-11-05T05:47:25.910Z,0
2017-11-05T05:48:34.785Z,0
2017-11-05T05:49:43.326Z,0
2017-11-05T05:50:52.198Z,0
2017-11-05T05:52:01.411Z,0
2017-11-05T05:53:10.340Z,0
2017-11-05T05:54:19.218Z,0
2017-11-05T05:55:27.760Z,0
2017-11-05T05:56:36.975Z,0
2017-11-05T05:57:45.852Z,0
2017-11-05T05:58:55.099Z,0
2017-11-05T06:00:04.639Z,0
2017-11-05T06:01:13.525Z,0
2017-11-05T06:02:22.397Z,0
2017-11-05T06:03:31.275Z,0
2017-11-05T06:04:40.490Z,0
2017-11-05T06:05:49.026Z,0
2017-11-05T06:06:57.898Z,0
2017-11-05T06:08:06.781Z,0
2017-11-05T06:09:15.654Z,0
2017-11-05T06:10:24.192Z,0
2017-11-05T06:11:32.738Z,0
2017-11-05T06:12:41.276Z,0
2017-11-05T06:13:50.152Z,0
2017-11-05T06:14:58.701Z,0
2017-11-05T06:16:07.582Z,0
2017-11-05T06:17:16.120Z,0
2017-11-05T06:18:24.996Z,0
2017-11-05T06:19:34.207Z,0
2017-11-05T06:20:43.090Z,0
2017-11-05T06:21:52.295Z,0
2017-11-05T06:23:01.511Z,0
2017-11-05T06:24:10.103Z,0
2017-11-05T06:25:18.983Z,0
2017-11-05T06:26:27.522Z,0
2017-11-05T06:27:36.393Z,0
2017-11-05T06:28:45.270Z,0
2017-11-05T06:29:54.144Z,0
2017-11-05T06:31:03.023Z,0
2017-11-05T06:32:11.562Z,0
2017-11-05T06:33:20.100Z,0
2017-11-05T06:34:28.639Z,0
2017-11-05T06:35:37.179Z,0
2017-11-05T06:36:45.725Z,0
2017-11-05T06:37:54.606Z,0
2017-11-05T06:39:03.490Z,0
2017-11-05T06:40:12.707Z,0
2017-11-05T06:41:21.249Z,0
2017-11-05T06:42:30.459Z,0
2017-11-05T06:43:38.999Z,0
2017-11-05T06:44:48.210Z,0
2017-11-05T06:45:57.415Z,0
2017-11-05T06:47:05.955Z,0
2017-11-05T06:48:14.838Z,0
2017-11-05T06:49:23.376Z,0
2017-11-05T06:50:32.255Z,0
2017-11-05T06:51:40.793Z,0
2017-11-05T06:52:49.332Z,0
2017-11-05T06:53:58.210Z,0
2017-11-05T06:55:07.086Z,0
2017-11-05T06:56:16.294Z,0
2017-11-05T06:57:25.170Z,0
2017-11-05T06:58:33.708Z,5
2017-11-05T06:59:42.928Z,5
2017-11-05T07:00:51.810Z,5
2017-11-05T07:02:00.684Z,5
2017-11-05T07:03:09.560Z,5
2017-11-05T07:04:18.811Z,5
2017-11-05T07:05:27.741Z,10
2017-11-05T07:06:36.617Z,10
2017-11-05T07:07:45.488Z,10
2017-11-05T07:08:54.372Z,10
2017-11-05T07:10:03.249Z,10
2017-11-05T07:11:12.133Z,10
2017-11-05T07:12:21.685Z,15
2017-11-05T07:13:30.567Z,10
2017-11-05T07:14:39.107Z,10
2017-11-05T07:15:47.643Z,10
2017-11-05T07:16:56.518Z,10
2017-11-05T07:18:05.392Z,10
2017-11-05T07:19:14.267Z,10
2017-11-05T07:20:22.805Z,10
2017-11-05T07:21:32.026Z,10
2017-11-05T07:22:40.558Z,10
2017-11-05T07:23:49.431Z,10
2017-11-05T07:24:58.983Z,10
2017-11-05T07:26:07.857Z,10
2017-11-05T07:27:16.398Z,10
2017-11-05T07:28:25.272Z,10
2017-11-05T07:29:34.481Z,10
2017-11-05T07:30:43.017Z,10
2017-11-05T07:31:51.555Z,10
2017-11-05T07:33:00.093Z,10
2017-11-05T07:34:08.965Z,10
2017-11-05T07:35:17.506Z,10
2017-11-05T07:36:26.045Z,10
2017-11-05T07:37:34.585Z,10
2017-11-05T07:38:43.126Z,10
2017-11-05T07:39:51.669Z,10
2017-11-05T07:41:01.217Z,10
2017-11-05T07:42:09.762Z,10
2017-11-05T07:43:18.324Z,10
2017-11-05T07:44:27.176Z,10
2017-11-05T07:45:36.055Z,10
2017-11-05T07:46:44.645Z,10
2017-11-05T07:47:54.186Z,10
2017-11-05T07:49:03.403Z,10
2017-11-05T07:50:12.281Z,10
2017-11-05T07:51:20.822Z,10
2017-11-05T07:52:29.361Z,10
2017-11-05T07:53:37.901Z,10
2017-11-05T07:54:46.775Z,15
2017-11-05T07:55:55.650Z,15
2017-11-05T07:57:04.865Z,15
2017-11-05T07:58:14.082Z,15
2017-11-05T07:59:22.961Z,15
2017-11-05T08:00:31.498Z,15
2017-11-05T08:01:40.372Z,15
2017-11-05T08:02:48.910Z,15
2017-11-05T08:03:57.450Z,15
2017-11-05T08:05:06.334Z,15
2017-11-05T08:06:15.883Z,15
2017-11-05T08:07:25.434Z,15
2017-11-05T08:08:34.312Z,15
2017-11-05T08:09:43.191Z,15
2017-11-05T08:10:51.727Z,15
2017-11-05T08:12:00.598Z,15
2017-11-05T08:13:09.487Z,15
2017-11-05T08:14:18.367Z,15
2017-11-05T08:15:26.909Z,20
2017-11-05T08:16:36.461Z,20
2017-11-05T08:17:45.337Z,20
2017-11-05T08:18:54.212Z,20
2017-11-05T08:20:03.091Z,20
2017-11-05T08:21:11.627Z,20
2017-11-05T08:22:20.502Z,20
2017-11-05T08:23:29.719Z,20
2017-11-05T08:24:39.272Z,20
2017-11-05T08:25:47.811Z,20
2017-11-05T08:26:57.021Z,20
2017-11-05T08:28:05.897Z,20
2017-11-05T08:29:15.074Z,20
2017-11-05T08:30:23.948Z,20
2017-11-05T08:31:32.489Z,20
2017-11-05T08:32:41.703Z,20
2017-11-05T08:33:50.577Z,25
2017-11-05T08:34:59.449Z,25
2017-11-05T08:36:08.324Z,25
2017-11-05T08:37:17.200Z,30
2017-11-05T08:38:25.737Z,30
2017-11-05T08:39:34.948Z,35
2017-11-05T08:40:44.157Z,35
2017-11-05T08:41:53.368Z,35
2017-11-05T08:43:02.240Z,35
2017-11-05T08:44:11.120Z,35
2017-11-05T08:45:19.998Z,40
2017-11-05T08:46:28.873Z,40
2017-11-05T08:47:37.414Z,40
2017-11-05T08:48:46.289Z,40
2017-11-05T08:49:55.505Z,40
2017-11-05T08:51:04.382Z,40
2017-11-05T08:52:13.594Z,45
2017-11-05T08:53:22.141Z,45
2017-11-05T08:54:31.017Z,45
2017-11-05T08:55:39.896Z,45
2017-11-05T08:56:48.443Z,50
2017-11-05T08:57:56.981Z,55
2017-11-05T08:59:05.862Z,55
2017-11-05T09:00:14.402Z,55
2017-11-05T09:01:23.277Z,55
2017-11-05T09:02:32.483Z,60
2017-11-05T09:03:41.026Z,60
2017-11-05T09:04:49.565Z,60
2017-11-05T09:05:58.780Z,60
2017-11-05T09:07:07.996Z,60
2017-11-05T09:08:16.868Z,65
2017-11-05T09:09:25.754Z,65
2017-11-05T09:10:34.296Z,70
2017-11-05T09:11:43.173Z,75
2017-11-05T09:12:51.770Z,70
2017-11-05T09:14:00.647Z,70
2017-11-05T09:15:09.522Z,70
2017-11-05T09:16:18.060Z,70
2017-11-05T09:17:26.934Z,65
2017-11-05T09:18:35.472Z,65
2017-11-05T09:19:44.346Z,65
2017-11-05T09:20:53.223Z,70
2017-11-05T09:22:02.104Z,70
2017-11-05T09:23:11.652Z,70
2017-11-05T09:24:20.190Z,70
2017-11-05T09:25:29.400Z,70
2017-11-05T09:26:38.613Z,80
2017-11-05T09:27:47.491Z,85
2017-11-05T09:28:56.368Z,85
2017-11-05T09:30:05.247Z,75
2017-11-05T09:31:13.789Z,75
2017-11-05T09:32:22.329Z,75
2017-11-05T09:33:30.866Z,70
2017-11-05T09:34:39.741Z,65
2017-11-05T09:35:48.951Z,70
2017-11-05T09:36:58.165Z,70
2017-11-05T09:38:07.494Z,70
2017-11-05T09:39:16.407Z,70
2017-11-05T09:40:25.285Z,75
2017-11-05T09:41:34.167Z,75
2017-11-05T09:42:42.704Z,70
2017-11-05T09:43:51.922Z,70
2017-11-05T09:45:01.952Z,70
2017-11-05T09:46:10.492Z,70
2017-11-05T09:47:20.035Z,70
2017-11-05T09:48:28.910Z,70
2017-11-05T09:49:37.806Z,70
2017-11-05T09:50:47.019Z,75
2017-11-05T09:51:55.899Z,85
2017-11-05T09:53:04.774Z,75
2017-11-05T09:54:13.996Z,80
2017-11-05T09:55:22.549Z,70
2017-11-05T09:56:31.767Z,70
2017-11-05T09:57:40.645Z,65
2017-11-05T09:58:49.518Z,65
2017-11-05T09:59:58.389Z,65
2017-11-05T10:01:07.265Z,60
2017-11-05T10:02:15.808Z,55
2017-11-05T10:03:24.688Z,60
2017-11-05T10:04:33.232Z,60
2017-11-05T10:05:42.118Z,60
2017-11-05T10:06:51.002Z,60
2017-11-05T10:08:00.373Z,60
2017-11-05T10:09:09.257Z,60
2017-11-05T10:10:18.483Z,60
2017-11-05T10:11:27.032Z,60
2017-11-05T10:12:35.925Z,60
2017-11-05T10:13:45.485Z,60
2017-11-05T10:14:54.370Z,60
2017-11-05T10:16:03.927Z,60
2017-11-05T10:17:12.474Z,60
2017-11-05T10:18:21.355Z,60
2017-11-05T10:19:30.925Z,55
2017-11-05T10:20:39.823Z,55
2017-11-05T10:21:48.356Z,55
2017-11-05T10:22:57.232Z,55
2017-11-05T10:24:06.442Z,60
2017-11-05T10:25:15.656Z,60
2017-11-05T10:26:24.877Z,60
2017-11-05T10:27:33.416Z,60
2017-11-05T10:28:41.952Z,60
2017-11-05T10:29:50.492Z,60
2017-11-05T10:30:59.366Z,60
2017-11-05T10:32:08.578Z,60
2017-11-05T10:33:18.123Z,60
2017-11-05T10:34:27.005Z,60
2017-11-05T10:35:35.884Z,60
2017-11-05T10:36:45.099Z,60
2017-11-05T10:37:53.977Z,60
2017-11-05T10:39:02.516Z,60
2017-11-05T10:40:11.054Z,60
2017-11-05T10:41:19.595Z,60
2017-11-05T10:42:28.472Z,60
2017-11-05T10:43:37.348Z,60
2017-11-05T10:44:46.929Z,60
2017-11-05T10:45:55.802Z,60
2017-11-05T10:47:04.673Z,55
2017-11-05T10:48:13.890Z,60
2017-11-05T10:49:22.431Z,60
2017-11-05T10:50:30.969Z,60
2017-11-05T10:51:39.508Z,50
2017-11-05T10:52:48.720Z,60
2017-11-05T10:53:57.967Z,60
2017-11-05T10:55:06.855Z,60
2017-11-05T10:56:16.069Z,60
2017-11-05T10:57:24.607Z,60
2017-11-05T10:58:33.149Z,60
2017-11-05T10:59:41.687Z,60
2017-11-05T11:00:50.231Z,65
2017-11-05T11:01:58.770Z,70
2017-11-05T11:03:07.312Z,65
2017-11-05T11:04:16.521Z,65
2017-11-05T11:05:25.063Z,55
2017-11-05T11:06:33.941Z,65
2017-11-05T11:07:42.817Z,80
2017-11-05T11:08:52.036Z,80
2017-11-05T11:10:00.911Z,70
2017-11-05T11:11:09.450Z,70
2017-11-05T11:12:17.990Z,65
2017-11-05T11:13:26.528Z,65
2017-11-05T11:14:35.756Z,65
2017-11-05T11:15:44.634Z,65
2017-11-05T11:16:53.172Z,75
2017-11-05T11:18:01.709Z,80
2017-11-05T11:19:10.253Z,70
2017-11-05T11:20:19.134Z,70
2017-11-05T11:21:27.674Z,65
2017-11-05T11:22:36.236Z,65
2017-11-05T11:23:45.116Z,65
2017-11-05T11:24:53.988Z,65
2017-11-05T11:26:02.865Z,65
2017-11-05T11:27:11.741Z,70
2017-11-05T11:28:20.282Z,65
2017-11-05T11:29:29.164Z,70
2017-11-05T11:30:38.390Z,90
2017-11-05T11:31:47.261Z,105
2017-11-05T11:32:55.805Z,95
2017-11-05T11:34:04.684Z,70
2017-11-05T11:35:13.225Z,75
2017-11-05T11:36:21.767Z,90
2017-11-05T11:37:30.648Z,90
2017-11-05T11:38:39.523Z,85
2017-11-05T11:39:48.060Z,75
2017-11-05T11:40:56.603Z,85
2017-11-05T11:42:05.817Z,85
2017-11-05T11:43:14.695Z,80
2017-11-05T11:44:23.574Z,75
2017-11-05T11:45:32.789Z,85
2017-11-05T11:46:41.335Z,125
2017-11-05T11:47:50.549Z,150
2017-11-05T11:48:59.092Z,150
2017-11-05T11:50:07.975Z,125
2017-11-05T11:51:16.508Z,100
2017-11-05T11:52:25.070Z,95
2017-11-05T11:53:33.981Z,95
2017-11-05T11:54:42.866Z,90
2017-11-05T11:55:51.746Z,70
2017-11-05T11:57:00.650Z,65
2017-11-05T11:58:09.929Z,65
2017-11-05T11:59:18.846Z,65
2017-11-05T12:00:27.734Z,65
2017-11-05T12:01:36.971Z,70
2017-11-05T12:02:45.856Z,70
2017-11-05T12:03:54.762Z,65
2017-11-05T12:05:03.655Z,60
2017-11-05T12:06:13.226Z,60
2017-11-05T12:07:22.122Z,60
2017-11-05T12:08:30.670Z,60
2017-11-05T12:09:39.548Z,65
2017-11-05T12:10:48.765Z,65
2017-11-05T12:11:57.644Z,65
2017-11-05T12:13:06.185Z,65
2017-11-05T12:14:15.063Z,70
2017-11-05T12:15:23.952Z,75
2017-11-05T12:16:32.831Z,75
2017-11-05T12:17:41.370Z,70
2017-11-05T12:18:50.247Z,70
2017-11-05T12:19:59.792Z,70
2017-11-05T12:21:09.024Z,75
2017-11-05T12:22:17.566Z,70
2017-11-05T12:23:26.450Z,70
2017-11-05T12:24:34.988Z,70
2017-11-05T12:25:43.831Z,70
2017-11-05T12:26:52.383Z,75
2017-11-05T12:28:01.263Z,75
2017-11-05T12:29:10.151Z,75
2017-11-05T12:30:19.145Z,75
2017-11-05T12:31:27.690Z,70
2017-11-05T12:32:36.230Z,70
2017-11-05T12:33:45.443Z,65
2017-11-05T12:34:54.664Z,65
2017-11-05T12:36:03.562Z,60
2017-11-05T12:37:12.085Z,60
2017-11-05T12:38:21.161Z,65
2017-11-05T12:39:30.034Z,70
2017-11-05T12:40:39.091Z,75
2017-11-05T12:41:47.652Z,75
2017-11-05T12:42:56.204Z,80
2017-11-05T12:44:05.085Z,80
2017-11-05T12:45:14.601Z,80
2017-11-05T12:46:23.475Z,75
2017-11-05T12:47:32.354Z,70
2017-11-05T12:48:40.917Z,70
2017-11-05T12:49:49.800Z,70
2017-11-05T12:50:58.730Z,75
2017-11-05T12:52:07.609Z,75
2017-11-05T12:53:16.491Z,70
2017-11-05T12:54:25.375Z,70
2017-11-05T12:55:34.590Z,75
2017-11-05T12:56:43.802Z,75
2017-11-05T12:57:52.688Z,75
2017-11-05T12:59:01.568Z,75
2017-11-05T13:00:10.116Z,75
2017-11-05T13:01:19.009Z,75
2017-11-05T13:02:27.869Z,75
2017-11-05T13:03:37.197Z,75
2017-11-05T13:04:46.074Z,75
2017-11-05T13:05:55.286Z,80
2017-11-05T13:07:04.164Z,75
2017-11-05T13:08:12.716Z,75
2017-11-05T13:09:21.590Z,70
2017-11-05T13:10:30.125Z,70
2017-11-05T13:11:39.342Z,65
2017-11-05T13:12:48.886Z,65
2017-11-05T13:13:58.108Z,60
2017-11-05T13:15:07.330Z,55
2017-11-05T13:16:15.875Z,50
2017-11-05T13:17:25.095Z,45
2017-11-05T13:18:33.971Z,35
2017-11-05T13:19:42.512Z,30
2017-11-05T13:20:51.388Z,30
2017-11-05T13:22:00.264Z,25
2017-11-05T13:23:09.141Z,25
2017-11-05T13:24:18.360Z,20
2017-11-05T13:25:27.570Z,15
2017-11-05T13:26:36.445Z,20
2017-11-05T13:27:45.000Z,20
2017-11-05T13:28:54.207Z,25
2017-11-05T13:30:02.748Z,25
2017-11-05T13:31:11.636Z,30
2017-11-05T13:32:20.510Z,30
2017-11-05T13:33:29.723Z,30
2017-11-05T13:34:38.597Z,30
2017-11-05T13:35:47.622Z,35
2017-11-05T13:36:56.508Z,35
2017-11-05T13:38:05.737Z,40
2017-11-05T13:39:14.279Z,45
2017-11-05T13:40:23.155Z,50
2017-11-05T13:41:31.691Z,50
2017-11-05T13:42:40.250Z,45
2017-11-05T13:43:49.125Z,40
2017-11-05T13:44:58.004Z,50
2017-11-05T13:46:06.890Z,50
2017-11-05T13:47:15.764Z,50
2017-11-05T13:48:24.306Z,45
2017-11-05T13:49:32.889Z,45
2017-11-05T13:50:42.099Z,55
2017-11-05T13:51:50.640Z,65
2017-11-05T13:52:59.183Z,60
2017-11-05T13:54:08.401Z,50
2017-11-05T13:55:17.276Z,35
2017-11-05T13:56:26.388Z,20
2017-11-05T13:57:35.237Z,15
2017-11-05T13:58:44.115Z,10
2017-11-05T13:59:52.653Z,5
2017-11-05T14:01:01.193Z,5
2017-11-05T14:02:10.427Z,5
2017-11-05T14:03:18.967Z,5
2017-11-05T14:04:28.190Z,10
2017-11-05T14:05:36.730Z,5
2017-11-05T14:06:45.945Z,5
2017-11-05T14:07:54.824Z,5
2017-11-05T14:09:03.752Z,5
2017-11-05T14:10:12.627Z,5
2017-11-05T14:11:21.168Z,5
2017-11-05T14:12:30.049Z,5
2017-11-05T14:13:39.262Z,10
2017-11-05T14:14:49.026Z,15
2017-11-05T14:15:57.569Z,20
2017-11-05T14:17:06.443Z,25
2017-11-05T14:18:15.337Z,20
2017-11-05T14:19:23.886Z,20
2017-11-05T14:20:32.769Z,15
2017-11-05T14:21:41.310Z,15
2017-11-05T14:22:50.523Z,10
2017-11-05T14:23:59.734Z,10
2017-11-05T14:25:08.615Z,15
2017-11-05T14:26:17.934Z,15
2017-11-05T14:27:26.473Z,15
2017-11-05T14:28:35.016Z,15
2017-11-05T14:29:43.888Z,30
2017-11-05T14:30:52.426Z,35
2017-11-05T14:32:01.636Z,35
2017-11-05T14:33:10.850Z,30
2017-11-05T14:34:19.729Z,15
2017-11-05T14:35:28.276Z,5
2017-11-05T14:36:37.155Z,5
2017-11-05T14:37:46.390Z,0
2017-11-05T14:38:55.292Z,5
2017-11-05T14:40:04.181Z,5
2017-11-05T14:41:12.738Z,5
2017-11-05T14:42:21.309Z,5
2017-11-05T14:43:30.183Z,5
2017-11-05T14:44:38.723Z,5
2017-11-05T14:45:47.260Z,10
2017-11-05T14:46:56.467Z,10
2017-11-05T14:48:05.352Z,10
2017-11-05T14:49:13.888Z,10
2017-11-05T14:50:22.763Z,15
2017-11-05T14:51:32.303Z,15
2017-11-05T14:52:40.841Z,20
2017-11-05T14:53:50.053Z,25
2017-11-05T14:54:59.449Z,30
2017-11-05T14:56:08.324Z,35
2017-11-05T14:57:17.200Z,40
2017-11-05T14:58:26.425Z,50
2017-11-05T14:59:35.016Z,55
2017-11-05T15:00:44.443Z,50
2017-11-05T15:01:53.315Z,50
2017-11-05T15:03:02.191Z,45
2017-11-05T15:04:10.742Z,45
2017-11-05T15:05:19.286Z,45
2017-11-05T15:06:28.500Z,45
2017-11-05T15:07:37.037Z,40
2017-11-05T15:08:45.912Z,40
2017-11-05T15:09:54.857Z,40
2017-11-05T15:11:04.073Z,35
2017-11-05T15:12:13.291Z,35
2017-11-05T15:13:22.502Z,30
2017-11-05T15:14:32.050Z,30
2017-11-05T15:15:40.925Z,30
2017-11-05T15:16:50.141Z,30
2017-11-05T15:17:59.360Z,30
2017-11-05T15:19:07.900Z,25
2017-11-05T15:20:17.499Z,25
2017-11-05T15:21:27.052Z,25
2017-11-05T15:22:35.589Z,20
2017-11-05T15:23:44.130Z,20
2017-11-05T15:24:53.005Z,20
2017-11-05T15:26:01.911Z,20
2017-11-05T15:27:10.450Z,20
2017-11-05T15:28:18.989Z,20
2017-11-05T15:29:27.865Z,20
2017-11-05T15:30:37.080Z,15
2017-11-05T15:31:45.957Z,20
2017-11-05T15:32:54.840Z,15
2017-11-05T15:34:03.718Z,15
2017-11-05T15:35:12.930Z,15
2017-11-05T15:36:21.811Z,15
2017-11-05T15:37:30.706Z,15
2017-11-05T15:38:39.926Z,15
2017-11-05T15:39:48.798Z,10
2017-11-05T15:40:57.335Z,10
2017-11-05T15:42:05.876Z,10
2017-11-05T15:43:14.419Z,10
2017-11-05T15:44:23.294Z,5
2017-11-05T15:45:31.837Z,5
2017-11-05T15:46:40.375Z,5
2017-11-05T15:47:49.252Z,5
2017-11-05T15:48:57.795Z,5
2017-11-05T15:50:06.672Z,5
2017-11-05T15:51:15.207Z,5
2017-11-05T15:52:23.748Z,5
2017-11-05T15:53:32.290Z,5
2017-11-05T15:54:41.168Z,5
2017-11-05T15:55:50.046Z,0
2017-11-05T15:56:58.921Z,0
2017-11-05T15:58:07.796Z,0
2017-11-05T15:59:17.126Z,0
2017-11-05T16:00:26.337Z,0
2017-11-05T16:01:35.210Z,0
2017-11-05T16:02:43.752Z,0
2017-11-05T16:03:52.291Z,0
2017-11-05T16:05:01.835Z,0
2017-11-05T16:06:11.087Z,0
2017-11-05T16:07:20.297Z,0
2017-11-05T16:08:29.170Z,0
2017-11-05T16:09:37.710Z,0
2017-11-05T16:10:46.246Z,0
2017-11-05T16:11:54.787Z,0
2017-11-05T16:13:03.325Z,0
2017-11-05T16:14:12.198Z,0
2017-11-05T16:15:21.078Z,0
2017-11-05T16:16:29.610Z,0
2017-11-05T16:17:38.488Z,0
2017-11-05T16:18:47.027Z,0
2017-11-05T16:19:55.906Z,0
2017-11-05T16:21:04.459Z,0
2017-11-05T16:22:13.319Z,0
2017-11-05T16:23:21.857Z,0
2017-11-05T16:24:30.395Z,0
2017-11-05T16:25:39.271Z,0
2017-11-05T16:26:48.149Z,0
2017-11-05T16:27:57.023Z,0
2017-11-05T16:29:06.237Z,0
2017-11-05T16:30:14.772Z,0
2017-11-05T16:31:23.647Z,0
2017-11-05T16:32:32.519Z,0
2017-11-05T16:33:41.058Z,0
2017-11-05T16:34:49.596Z,0
2017-11-05T16:35:58.134Z,0
2017-11-05T16:37:06.676Z,0
2017-11-05T16:38:15.215Z,0
2017-11-05T16:39:24.087Z,0
2017-11-05T16:40:32.961Z,0